sensor_id;sensor_type;location;lat;lon;timestamp;P1;durP1;ratioP1;P2;durP2;ratioP2
80293;SDS011;69594;43.516;1.498;2024-03-02T00:02:12;11.88;;;4.68;;
80293;SDS011;69594;43.516;1.498;2024-03-02T00:04:39;12.23;;;5.63;;
80293;SDS011;69594;43.516;1.498;2024-03-02T00:07:04;11.50;;;5.93;;
80293;SDS011;69594;43.516;1.498;2024-03-02T00:09:31;10.45;;;5.60;;
80293;SDS011;69594;43.516;1.498;2024-03-02T00:11:57;10.60;;;5.25;;
80293;SDS011;69594;43.516;1.498;2024-03-02T00:14:23;8.48;;;4.32;;
80293;SDS011;69594;43.516;1.498;2024-03-02T00:16:49;10.90;;;5.43;;
80293;SDS011;69594;43.516;1.498;2024-03-02T00:19:16;8.93;;;4.17;;
80293;SDS011;69594;43.516;1.498;2024-03-02T00:21:41;8.80;;;4.70;;
80293;SDS011;69594;43.516;1.498;2024-03-02T00:26:57;11.88;;;5.28;;
80293;SDS011;69594;43.516;1.498;2024-03-02T00:29:22;10.23;;;4.80;;
80293;SDS011;69594;43.516;1.498;2024-03-02T00:31:49;9.75;;;5.30;;
80293;SDS011;69594;43.516;1.498;2024-03-02T00:34:14;8.77;;;4.80;;
80293;SDS011;69594;43.516;1.498;2024-03-02T00:36:41;9.38;;;4.75;;
80293;SDS011;69594;43.516;1.498;2024-03-02T00:39:07;11.43;;;4.90;;
80293;SDS011;69594;43.516;1.498;2024-03-02T00:41:33;13.32;;;5.03;;
80293;SDS011;69594;43.516;1.498;2024-03-02T00:46:40;12.65;;;5.78;;
80293;SDS011;69594;43.516;1.498;2024-03-02T00:51:40;13.13;;;5.78;;
80293;SDS011;69594;43.516;1.498;2024-03-02T00:54:08;12.75;;;6.10;;
80293;SDS011;69594;43.516;1.498;2024-03-02T00:56:35;14.13;;;6.97;;
80293;SDS011;69594;43.516;1.498;2024-03-02T00:59:01;11.13;;;5.60;;
80293;SDS011;69594;43.516;1.498;2024-03-02T01:01:26;9.67;;;5.27;;
80293;SDS011;69594;43.516;1.498;2024-03-02T01:03:52;11.00;;;4.63;;
80293;SDS011;69594;43.516;1.498;2024-03-02T01:06:17;9.37;;;4.40;;
80293;SDS011;69594;43.516;1.498;2024-03-02T01:08:44;8.07;;;4.57;;
80293;SDS011;69594;43.516;1.498;2024-03-02T01:11:09;13.97;;;4.73;;
80293;SDS011;69594;43.516;1.498;2024-03-02T01:13:35;7.18;;;3.95;;
80293;SDS011;69594;43.516;1.498;2024-03-02T01:16:00;8.57;;;3.97;;
80293;SDS011;69594;43.516;1.498;2024-03-02T01:18:26;9.38;;;4.18;;
80293;SDS011;69594;43.516;1.498;2024-03-02T01:20:52;11.10;;;4.57;;
80293;SDS011;69594;43.516;1.498;2024-03-02T01:23:20;8.15;;;4.63;;
80293;SDS011;69594;43.516;1.498;2024-03-02T01:25:46;10.77;;;4.25;;
80293;SDS011;69594;43.516;1.498;2024-03-02T01:28:12;9.02;;;4.68;;
80293;SDS011;69594;43.516;1.498;2024-03-02T01:30:38;9.63;;;4.68;;
80293;SDS011;69594;43.516;1.498;2024-03-02T01:33:03;8.50;;;4.53;;
80293;SDS011;69594;43.516;1.498;2024-03-02T01:35:30;9.05;;;4.05;;
80293;SDS011;69594;43.516;1.498;2024-03-02T01:37:56;8.63;;;4.40;;
80293;SDS011;69594;43.516;1.498;2024-03-02T01:40:22;9.60;;;4.00;;
80293;SDS011;69594;43.516;1.498;2024-03-02T01:42:51;8.10;;;3.97;;
80293;SDS011;69594;43.516;1.498;2024-03-02T01:45:18;9.50;;;4.18;;
80293;SDS011;69594;43.516;1.498;2024-03-02T01:47:43;9.30;;;4.00;;
80293;SDS011;69594;43.516;1.498;2024-03-02T01:50:10;8.65;;;4.35;;
80293;SDS011;69594;43.516;1.498;2024-03-02T01:52:36;5.55;;;3.45;;
80293;SDS011;69594;43.516;1.498;2024-03-02T01:55:02;7.18;;;4.10;;
80293;SDS011;69594;43.516;1.498;2024-03-02T01:57:29;6.85;;;3.92;;
80293;SDS011;69594;43.516;1.498;2024-03-02T01:59:54;7.60;;;4.00;;
80293;SDS011;69594;43.516;1.498;2024-03-02T02:02:20;7.50;;;3.88;;
80293;SDS011;69594;43.516;1.498;2024-03-02T02:04:46;8.80;;;4.23;;
80293;SDS011;69594;43.516;1.498;2024-03-02T02:07:12;8.27;;;3.88;;
80293;SDS011;69594;43.516;1.498;2024-03-02T02:09:39;8.50;;;4.30;;
80293;SDS011;69594;43.516;1.498;2024-03-02T02:12:07;9.53;;;3.57;;
80293;SDS011;69594;43.516;1.498;2024-03-02T02:14:34;9.77;;;4.03;;
80293;SDS011;69594;43.516;1.498;2024-03-02T02:16:59;11.30;;;4.40;;
80293;SDS011;69594;43.516;1.498;2024-03-02T02:19:25;7.75;;;3.80;;
80293;SDS011;69594;43.516;1.498;2024-03-02T02:21:50;8.27;;;3.40;;
80293;SDS011;69594;43.516;1.498;2024-03-02T02:24:16;7.90;;;3.80;;
80293;SDS011;69594;43.516;1.498;2024-03-02T02:26:41;6.70;;;3.50;;
80293;SDS011;69594;43.516;1.498;2024-03-02T02:29:06;8.70;;;3.25;;
80293;SDS011;69594;43.516;1.498;2024-03-02T02:31:39;7.63;;;3.17;;
80293;SDS011;69594;43.516;1.498;2024-03-02T02:34:05;7.72;;;3.58;;
80293;SDS011;69594;43.516;1.498;2024-03-02T02:36:31;6.72;;;3.30;;
80293;SDS011;69594;43.516;1.498;2024-03-02T02:38:57;6.00;;;3.15;;
80293;SDS011;69594;43.516;1.498;2024-03-02T02:41:28;9.75;;;4.18;;
80293;SDS011;69594;43.516;1.498;2024-03-02T02:43:54;8.82;;;3.70;;
80293;SDS011;69594;43.516;1.498;2024-03-02T02:46:20;6.13;;;3.30;;
80293;SDS011;69594;43.516;1.498;2024-03-02T02:48:45;6.78;;;3.33;;
80293;SDS011;69594;43.516;1.498;2024-03-02T02:51:11;7.20;;;3.13;;
80293;SDS011;69594;43.516;1.498;2024-03-02T02:53:36;8.07;;;3.13;;
80293;SDS011;69594;43.516;1.498;2024-03-02T02:56:05;7.32;;;3.00;;
80293;SDS011;69594;43.516;1.498;2024-03-02T02:58:33;6.38;;;3.13;;
80293;SDS011;69594;43.516;1.498;2024-03-02T03:00:59;6.63;;;3.08;;
80293;SDS011;69594;43.516;1.498;2024-03-02T03:03:24;6.27;;;2.60;;
80293;SDS011;69594;43.516;1.498;2024-03-02T03:05:49;7.70;;;2.97;;
80293;SDS011;69594;43.516;1.498;2024-03-02T03:08:15;5.20;;;3.00;;
80293;SDS011;69594;43.516;1.498;2024-03-02T03:10:43;7.93;;;2.80;;
80293;SDS011;69594;43.516;1.498;2024-03-02T03:13:09;5.35;;;3.03;;
80293;SDS011;69594;43.516;1.498;2024-03-02T03:15:35;4.97;;;2.40;;
80293;SDS011;69594;43.516;1.498;2024-03-02T03:18:04;6.90;;;2.92;;
80293;SDS011;69594;43.516;1.498;2024-03-02T03:20:30;5.75;;;2.65;;
80293;SDS011;69594;43.516;1.498;2024-03-02T03:22:56;9.50;;;2.53;;
80293;SDS011;69594;43.516;1.498;2024-03-02T03:25:22;8.95;;;2.50;;
80293;SDS011;69594;43.516;1.498;2024-03-02T03:27:47;5.68;;;2.55;;
80293;SDS011;69594;43.516;1.498;2024-03-02T03:30:13;6.47;;;2.40;;
80293;SDS011;69594;43.516;1.498;2024-03-02T03:32:38;7.10;;;2.70;;
80293;SDS011;69594;43.516;1.498;2024-03-02T03:35:04;8.75;;;2.45;;
80293;SDS011;69594;43.516;1.498;2024-03-02T03:37:31;6.57;;;2.75;;
80293;SDS011;69594;43.516;1.498;2024-03-02T03:39:58;8.13;;;3.13;;
80293;SDS011;69594;43.516;1.498;2024-03-02T03:42:24;7.10;;;2.95;;
80293;SDS011;69594;43.516;1.498;2024-03-02T03:44:50;5.68;;;2.70;;
80293;SDS011;69594;43.516;1.498;2024-03-02T03:47:15;5.68;;;2.67;;
80293;SDS011;69594;43.516;1.498;2024-03-02T03:49:41;6.23;;;2.63;;
80293;SDS011;69594;43.516;1.498;2024-03-02T03:52:06;7.53;;;3.00;;
80293;SDS011;69594;43.516;1.498;2024-03-02T03:54:32;7.55;;;2.55;;
80293;SDS011;69594;43.516;1.498;2024-03-02T03:56:57;6.28;;;2.63;;
80293;SDS011;69594;43.516;1.498;2024-03-02T03:59:22;6.23;;;2.70;;
80293;SDS011;69594;43.516;1.498;2024-03-02T04:01:48;5.93;;;2.38;;
80293;SDS011;69594;43.516;1.498;2024-03-02T04:04:14;5.97;;;2.83;;
80293;SDS011;69594;43.516;1.498;2024-03-02T04:06:39;7.07;;;2.33;;
80293;SDS011;69594;43.516;1.498;2024-03-02T04:09:05;5.25;;;2.63;;
80293;SDS011;69594;43.516;1.498;2024-03-02T04:11:31;5.57;;;3.30;;
80293;SDS011;69594;43.516;1.498;2024-03-02T04:13:56;7.77;;;3.43;;
80293;SDS011;69594;43.516;1.498;2024-03-02T04:16:21;5.97;;;2.75;;
80293;SDS011;69594;43.516;1.498;2024-03-02T04:18:47;5.80;;;2.63;;
80293;SDS011;69594;43.516;1.498;2024-03-02T04:21:13;6.83;;;3.00;;
80293;SDS011;69594;43.516;1.498;2024-03-02T04:23:38;6.25;;;2.67;;
80293;SDS011;69594;43.516;1.498;2024-03-02T04:26:04;6.20;;;2.57;;
80293;SDS011;69594;43.516;1.498;2024-03-02T04:28:29;6.17;;;2.80;;
80293;SDS011;69594;43.516;1.498;2024-03-02T04:30:55;9.18;;;2.85;;
80293;SDS011;69594;43.516;1.498;2024-03-02T04:33:20;6.47;;;2.80;;
80293;SDS011;69594;43.516;1.498;2024-03-02T04:35:46;5.50;;;2.30;;
80293;SDS011;69594;43.516;1.498;2024-03-02T04:38:11;7.67;;;3.33;;
80293;SDS011;69594;43.516;1.498;2024-03-02T04:40:37;7.68;;;3.00;;
80293;SDS011;69594;43.516;1.498;2024-03-02T04:43:03;5.33;;;2.90;;
80293;SDS011;69594;43.516;1.498;2024-03-02T04:45:28;5.38;;;2.28;;
80293;SDS011;69594;43.516;1.498;2024-03-02T04:47:54;7.53;;;2.83;;
80293;SDS011;69594;43.516;1.498;2024-03-02T04:50:20;4.25;;;1.90;;
80293;SDS011;69594;43.516;1.498;2024-03-02T04:52:45;5.33;;;2.93;;
80293;SDS011;69594;43.516;1.498;2024-03-02T04:55:10;7.97;;;3.33;;
80293;SDS011;69594;43.516;1.498;2024-03-02T04:57:42;8.73;;;3.60;;
80293;SDS011;69594;43.516;1.498;2024-03-02T05:00:07;6.50;;;3.40;;
80293;SDS011;69594;43.516;1.498;2024-03-02T05:02:34;6.50;;;3.08;;
80293;SDS011;69594;43.516;1.498;2024-03-02T05:04:59;5.00;;;2.65;;
80293;SDS011;69594;43.516;1.498;2024-03-02T05:07:25;3.97;;;2.30;;
80293;SDS011;69594;43.516;1.498;2024-03-02T05:09:51;4.43;;;2.30;;
80293;SDS011;69594;43.516;1.498;2024-03-02T05:12:16;4.43;;;2.50;;
80293;SDS011;69594;43.516;1.498;2024-03-02T05:15:14;5.22;;;2.00;;
80293;SDS011;69594;43.516;1.498;2024-03-02T05:17:40;7.43;;;2.33;;
80293;SDS011;69594;43.516;1.498;2024-03-02T05:20:10;5.60;;;2.38;;
80293;SDS011;69594;43.516;1.498;2024-03-02T05:22:36;6.18;;;2.40;;
80293;SDS011;69594;43.516;1.498;2024-03-02T05:25:05;8.15;;;3.30;;
80293;SDS011;69594;43.516;1.498;2024-03-02T05:27:31;6.45;;;2.75;;
80293;SDS011;69594;43.516;1.498;2024-03-02T05:30:00;5.28;;;2.80;;
80293;SDS011;69594;43.516;1.498;2024-03-02T05:32:26;6.43;;;2.85;;
80293;SDS011;69594;43.516;1.498;2024-03-02T05:34:51;6.53;;;2.60;;
80293;SDS011;69594;43.516;1.498;2024-03-02T05:37:17;6.68;;;3.20;;
80293;SDS011;69594;43.516;1.498;2024-03-02T05:39:43;6.32;;;3.38;;
80293;SDS011;69594;43.516;1.498;2024-03-02T05:42:08;5.60;;;2.70;;
80293;SDS011;69594;43.516;1.498;2024-03-02T05:44:35;4.47;;;2.63;;
80293;SDS011;69594;43.516;1.498;2024-03-02T05:47:01;7.10;;;2.95;;
80293;SDS011;69594;43.516;1.498;2024-03-02T05:49:26;6.20;;;3.20;;
80293;SDS011;69594;43.516;1.498;2024-03-02T05:51:51;10.13;;;3.17;;
80293;SDS011;69594;43.516;1.498;2024-03-02T05:54:17;5.90;;;3.00;;
80293;SDS011;69594;43.516;1.498;2024-03-02T05:56:43;7.70;;;3.27;;
80293;SDS011;69594;43.516;1.498;2024-03-02T05:59:08;6.78;;;3.20;;
80293;SDS011;69594;43.516;1.498;2024-03-02T06:01:45;6.55;;;3.10;;
80293;SDS011;69594;43.516;1.498;2024-03-02T06:04:12;5.95;;;3.45;;
80293;SDS011;69594;43.516;1.498;2024-03-02T06:06:38;7.47;;;3.60;;
80293;SDS011;69594;43.516;1.498;2024-03-02T06:09:04;8.68;;;2.95;;
80293;SDS011;69594;43.516;1.498;2024-03-02T06:11:33;8.95;;;3.25;;
80293;SDS011;69594;43.516;1.498;2024-03-02T06:13:58;6.25;;;3.05;;
80293;SDS011;69594;43.516;1.498;2024-03-02T06:16:24;5.75;;;2.83;;
80293;SDS011;69594;43.516;1.498;2024-03-02T06:18:49;4.87;;;2.70;;
80293;SDS011;69594;43.516;1.498;2024-03-02T06:21:15;5.77;;;2.63;;
80293;SDS011;69594;43.516;1.498;2024-03-02T06:23:40;6.33;;;2.93;;
80293;SDS011;69594;43.516;1.498;2024-03-02T06:26:06;5.68;;;3.00;;
80293;SDS011;69594;43.516;1.498;2024-03-02T06:28:31;5.53;;;3.13;;
80293;SDS011;69594;43.516;1.498;2024-03-02T06:30:57;7.53;;;3.38;;
80293;SDS011;69594;43.516;1.498;2024-03-02T06:33:22;5.43;;;2.88;;
80293;SDS011;69594;43.516;1.498;2024-03-02T06:35:48;8.57;;;3.50;;
80293;SDS011;69594;43.516;1.498;2024-03-02T06:38:14;6.60;;;3.00;;
80293;SDS011;69594;43.516;1.498;2024-03-02T06:40:39;6.70;;;2.77;;
80293;SDS011;69594;43.516;1.498;2024-03-02T06:43:05;7.95;;;3.40;;
80293;SDS011;69594;43.516;1.498;2024-03-02T06:45:31;8.67;;;3.70;;
80293;SDS011;69594;43.516;1.498;2024-03-02T06:47:56;7.70;;;3.33;;
80293;SDS011;69594;43.516;1.498;2024-03-02T06:50:22;8.70;;;3.83;;
80293;SDS011;69594;43.516;1.498;2024-03-02T06:52:47;8.55;;;3.47;;
80293;SDS011;69594;43.516;1.498;2024-03-02T06:55:13;7.57;;;3.73;;
80293;SDS011;69594;43.516;1.498;2024-03-02T06:57:38;6.70;;;3.33;;
80293;SDS011;69594;43.516;1.498;2024-03-02T07:00:04;7.83;;;3.60;;
80293;SDS011;69594;43.516;1.498;2024-03-02T07:02:30;7.00;;;3.58;;
80293;SDS011;69594;43.516;1.498;2024-03-02T07:04:56;13.35;;;5.13;;
80293;SDS011;69594;43.516;1.498;2024-03-02T07:07:21;6.07;;;3.27;;
80293;SDS011;69594;43.516;1.498;2024-03-02T07:09:47;9.33;;;4.43;;
80293;SDS011;69594;43.516;1.498;2024-03-02T07:12:13;8.93;;;4.22;;
80293;SDS011;69594;43.516;1.498;2024-03-02T07:14:39;7.80;;;3.70;;
80293;SDS011;69594;43.516;1.498;2024-03-02T07:17:23;8.45;;;3.80;;
80293;SDS011;69594;43.516;1.498;2024-03-02T07:19:48;5.30;;;2.88;;
80293;SDS011;69594;43.516;1.498;2024-03-02T07:22:14;6.53;;;2.87;;
80293;SDS011;69594;43.516;1.498;2024-03-02T07:24:43;5.50;;;2.90;;
80293;SDS011;69594;43.516;1.498;2024-03-02T07:27:09;5.97;;;2.83;;
80293;SDS011;69594;43.516;1.498;2024-03-02T07:29:35;5.15;;;2.50;;
80293;SDS011;69594;43.516;1.498;2024-03-02T07:32:01;4.60;;;2.53;;
80293;SDS011;69594;43.516;1.498;2024-03-02T07:34:26;3.78;;;2.13;;
80293;SDS011;69594;43.516;1.498;2024-03-02T07:36:52;6.57;;;2.87;;
80293;SDS011;69594;43.516;1.498;2024-03-02T07:39:18;6.07;;;2.30;;
80293;SDS011;69594;43.516;1.498;2024-03-02T07:41:44;5.00;;;2.40;;
80293;SDS011;69594;43.516;1.498;2024-03-02T07:44:11;5.75;;;2.72;;
80293;SDS011;69594;43.516;1.498;2024-03-02T07:46:43;7.35;;;3.00;;
80293;SDS011;69594;43.516;1.498;2024-03-02T07:49:08;6.82;;;3.42;;
80293;SDS011;69594;43.516;1.498;2024-03-02T07:51:34;5.32;;;2.80;;
80293;SDS011;69594;43.516;1.498;2024-03-02T07:54:01;7.72;;;2.58;;
80293;SDS011;69594;43.516;1.498;2024-03-02T07:56:26;5.20;;;2.33;;
80293;SDS011;69594;43.516;1.498;2024-03-02T07:58:52;5.88;;;2.35;;
80293;SDS011;69594;43.516;1.498;2024-03-02T08:01:18;7.23;;;2.90;;
80293;SDS011;69594;43.516;1.498;2024-03-02T08:03:43;4.60;;;2.25;;
80293;SDS011;69594;43.516;1.498;2024-03-02T08:06:16;5.60;;;2.88;;
80293;SDS011;69594;43.516;1.498;2024-03-02T08:08:42;5.57;;;3.17;;
80293;SDS011;69594;43.516;1.498;2024-03-02T08:11:07;6.47;;;3.07;;
80293;SDS011;69594;43.516;1.498;2024-03-02T08:13:33;8.17;;;3.70;;
80293;SDS011;69594;43.516;1.498;2024-03-02T08:15:58;3.70;;;2.30;;
80293;SDS011;69594;43.516;1.498;2024-03-02T08:18:24;6.23;;;2.33;;
80293;SDS011;69594;43.516;1.498;2024-03-02T08:20:49;3.37;;;2.50;;
80293;SDS011;69594;43.516;1.498;2024-03-02T08:23:14;4.15;;;2.58;;
80293;SDS011;69594;43.516;1.498;2024-03-02T08:25:39;4.70;;;2.43;;
80293;SDS011;69594;43.516;1.498;2024-03-02T08:28:05;5.77;;;2.43;;
80293;SDS011;69594;43.516;1.498;2024-03-02T08:30:31;6.97;;;2.57;;
80293;SDS011;69594;43.516;1.498;2024-03-02T08:32:56;6.13;;;2.40;;
80293;SDS011;69594;43.516;1.498;2024-03-02T08:35:21;7.07;;;2.73;;
80293;SDS011;69594;43.516;1.498;2024-03-02T08:37:47;6.07;;;2.50;;
80293;SDS011;69594;43.516;1.498;2024-03-02T08:40:12;6.97;;;2.40;;
80293;SDS011;69594;43.516;1.498;2024-03-02T08:42:38;5.00;;;2.30;;
80293;SDS011;69594;43.516;1.498;2024-03-02T08:45:04;4.17;;;1.80;;
80293;SDS011;69594;43.516;1.498;2024-03-02T08:47:29;3.70;;;2.10;;
80293;SDS011;69594;43.516;1.498;2024-03-02T08:49:55;6.83;;;2.50;;
80293;SDS011;69594;43.516;1.498;2024-03-02T08:52:20;5.17;;;2.50;;
80293;SDS011;69594;43.516;1.498;2024-03-02T08:54:47;5.60;;;2.47;;
80293;SDS011;69594;43.516;1.498;2024-03-02T08:57:12;6.53;;;2.30;;
80293;SDS011;69594;43.516;1.498;2024-03-02T08:59:37;5.63;;;2.53;;
80293;SDS011;69594;43.516;1.498;2024-03-02T09:02:04;11.70;;;2.80;;
80293;SDS011;69594;43.516;1.498;2024-03-02T09:04:29;3.93;;;2.23;;
80293;SDS011;69594;43.516;1.498;2024-03-02T09:06:54;6.57;;;2.30;;
80293;SDS011;69594;43.516;1.498;2024-03-02T09:09:20;6.50;;;2.27;;
80293;SDS011;69594;43.516;1.498;2024-03-02T09:11:46;4.37;;;2.03;;
80293;SDS011;69594;43.516;1.498;2024-03-02T09:14:11;5.03;;;2.20;;
80293;SDS011;69594;43.516;1.498;2024-03-02T09:16:37;4.33;;;2.10;;
80293;SDS011;69594;43.516;1.498;2024-03-02T09:19:03;6.18;;;2.47;;
80293;SDS011;69594;43.516;1.498;2024-03-02T09:21:28;4.90;;;1.90;;
80293;SDS011;69594;43.516;1.498;2024-03-02T09:23:55;6.32;;;2.53;;
80293;SDS011;69594;43.516;1.498;2024-03-02T09:26:21;5.22;;;2.10;;
80293;SDS011;69594;43.516;1.498;2024-03-02T09:28:47;5.97;;;2.25;;
80293;SDS011;69594;43.516;1.498;2024-03-02T09:31:12;5.93;;;2.27;;
80293;SDS011;69594;43.516;1.498;2024-03-02T09:33:38;6.73;;;2.00;;
80293;SDS011;69594;43.516;1.498;2024-03-02T09:36:04;5.53;;;1.98;;
80293;SDS011;69594;43.516;1.498;2024-03-02T09:38:31;6.75;;;2.40;;
80293;SDS011;69594;43.516;1.498;2024-03-02T09:40:57;7.63;;;2.47;;
80293;SDS011;69594;43.516;1.498;2024-03-02T09:43:22;5.60;;;2.17;;
80293;SDS011;69594;43.516;1.498;2024-03-02T09:45:48;4.72;;;2.03;;
80293;SDS011;69594;43.516;1.498;2024-03-02T09:48:13;6.37;;;2.40;;
80293;SDS011;69594;43.516;1.498;2024-03-02T09:50:39;8.50;;;2.73;;
80293;SDS011;69594;43.516;1.498;2024-03-02T09:53:04;4.73;;;2.13;;
80293;SDS011;69594;43.516;1.498;2024-03-02T09:55:31;7.43;;;2.05;;
80293;SDS011;69594;43.516;1.498;2024-03-02T09:57:56;7.68;;;2.45;;
80293;SDS011;69594;43.516;1.498;2024-03-02T10:00:22;8.10;;;2.27;;
80293;SDS011;69594;43.516;1.498;2024-03-02T10:02:47;9.00;;;2.73;;
80293;SDS011;69594;43.516;1.498;2024-03-02T10:05:22;10.80;;;3.15;;
80293;SDS011;69594;43.516;1.498;2024-03-02T10:08:09;11.93;;;2.80;;
80293;SDS011;69594;43.516;1.498;2024-03-02T10:10:35;7.20;;;2.42;;
80293;SDS011;69594;43.516;1.498;2024-03-02T10:13:04;7.03;;;2.70;;
80293;SDS011;69594;43.516;1.498;2024-03-02T10:15:33;7.13;;;2.65;;
80293;SDS011;69594;43.516;1.498;2024-03-02T10:17:58;8.57;;;2.57;;
80293;SDS011;69594;43.516;1.498;2024-03-02T10:20:24;10.23;;;3.13;;
80293;SDS011;69594;43.516;1.498;2024-03-02T10:22:50;6.13;;;2.45;;
80293;SDS011;69594;43.516;1.498;2024-03-02T10:25:28;6.63;;;2.50;;
80293;SDS011;69594;43.516;1.498;2024-03-02T10:27:53;5.78;;;2.53;;
80293;SDS011;69594;43.516;1.498;2024-03-02T10:30:22;9.85;;;3.03;;
80293;SDS011;69594;43.516;1.498;2024-03-02T10:32:48;6.30;;;2.27;;
80293;SDS011;69594;43.516;1.498;2024-03-02T10:35:14;8.52;;;2.35;;
80293;SDS011;69594;43.516;1.498;2024-03-02T10:37:40;7.90;;;2.22;;
80293;SDS011;69594;43.516;1.498;2024-03-02T10:40:06;11.30;;;3.10;;
80293;SDS011;69594;43.516;1.498;2024-03-02T10:42:33;9.75;;;3.10;;
80293;SDS011;69594;43.516;1.498;2024-03-02T10:44:59;12.18;;;3.00;;
80293;SDS011;69594;43.516;1.498;2024-03-02T10:47:24;10.23;;;2.90;;
80293;SDS011;69594;43.516;1.498;2024-03-02T10:49:52;8.98;;;2.75;;
80293;SDS011;69594;43.516;1.498;2024-03-02T10:52:18;6.68;;;2.42;;
80293;SDS011;69594;43.516;1.498;2024-03-02T10:54:43;9.07;;;3.13;;
80293;SDS011;69594;43.516;1.498;2024-03-02T10:57:09;4.47;;;2.30;;
80293;SDS011;69594;43.516;1.498;2024-03-02T10:59:36;9.68;;;2.58;;
80293;SDS011;69594;43.516;1.498;2024-03-02T11:02:04;4.75;;;2.45;;
80293;SDS011;69594;43.516;1.498;2024-03-02T11:04:33;6.60;;;2.30;;
80293;SDS011;69594;43.516;1.498;2024-03-02T11:07:00;6.55;;;2.97;;
80293;SDS011;69594;43.516;1.498;2024-03-02T11:09:28;7.87;;;2.73;;
80293;SDS011;69594;43.516;1.498;2024-03-02T11:11:57;7.80;;;3.10;;
80293;SDS011;69594;43.516;1.498;2024-03-02T11:14:24;6.25;;;2.50;;
80293;SDS011;69594;43.516;1.498;2024-03-02T11:16:50;7.13;;;2.17;;
80293;SDS011;69594;43.516;1.498;2024-03-02T11:19:16;6.93;;;2.30;;
80293;SDS011;69594;43.516;1.498;2024-03-02T11:21:42;6.83;;;2.07;;
80293;SDS011;69594;43.516;1.498;2024-03-02T11:26:58;8.43;;;2.63;;
80293;SDS011;69594;43.516;1.498;2024-03-02T11:29:56;4.90;;;2.20;;
80293;SDS011;69594;43.516;1.498;2024-03-02T11:32:20;9.57;;;2.60;;
80293;SDS011;69594;43.516;1.498;2024-03-02T11:34:46;6.28;;;2.40;;
80293;SDS011;69594;43.516;1.498;2024-03-02T11:37:13;6.38;;;2.10;;
80293;SDS011;69594;43.516;1.498;2024-03-02T11:39:39;5.97;;;2.40;;
80293;SDS011;69594;43.516;1.498;2024-03-02T11:42:07;3.63;;;2.25;;
80293;SDS011;69594;43.516;1.498;2024-03-02T11:44:35;7.27;;;2.70;;
80293;SDS011;69594;43.516;1.498;2024-03-02T11:47:01;8.57;;;2.28;;
80293;SDS011;69594;43.516;1.498;2024-03-02T11:49:42;5.45;;;2.28;;
80293;SDS011;69594;43.516;1.498;2024-03-02T11:52:09;9.73;;;3.10;;
80293;SDS011;69594;43.516;1.498;2024-03-02T11:54:39;9.23;;;2.63;;
80293;SDS011;69594;43.516;1.498;2024-03-02T11:57:05;5.75;;;2.28;;
80293;SDS011;69594;43.516;1.498;2024-03-02T11:59:30;6.57;;;2.40;;
80293;SDS011;69594;43.516;1.498;2024-03-02T12:01:56;7.63;;;2.30;;
80293;SDS011;69594;43.516;1.498;2024-03-02T12:04:22;10.60;;;2.80;;
80293;SDS011;69594;43.516;1.498;2024-03-02T12:06:48;7.50;;;2.53;;
80293;SDS011;69594;43.516;1.498;2024-03-02T12:09:20;9.15;;;3.10;;
80293;SDS011;69594;43.516;1.498;2024-03-02T12:11:45;6.40;;;2.85;;
80293;SDS011;69594;43.516;1.498;2024-03-02T12:14:11;4.33;;;2.50;;
80293;SDS011;69594;43.516;1.498;2024-03-02T12:16:38;8.30;;;2.63;;
80293;SDS011;69594;43.516;1.498;2024-03-02T12:19:05;6.35;;;2.40;;
80293;SDS011;69594;43.516;1.498;2024-03-02T12:21:31;6.30;;;2.27;;
80293;SDS011;69594;43.516;1.498;2024-03-02T12:23:56;7.85;;;2.28;;
80293;SDS011;69594;43.516;1.498;2024-03-02T12:26:22;7.33;;;2.73;;
80293;SDS011;69594;43.516;1.498;2024-03-02T12:28:47;5.65;;;2.95;;
80293;SDS011;69594;43.516;1.498;2024-03-02T12:31:13;7.80;;;2.30;;
80293;SDS011;69594;43.516;1.498;2024-03-02T12:33:39;10.43;;;2.77;;
80293;SDS011;69594;43.516;1.498;2024-03-02T12:36:05;7.82;;;2.53;;
80293;SDS011;69594;43.516;1.498;2024-03-02T12:38:30;7.23;;;2.37;;
80293;SDS011;69594;43.516;1.498;2024-03-02T12:40:55;7.67;;;2.63;;
80293;SDS011;69594;43.516;1.498;2024-03-02T12:43:21;9.57;;;2.87;;
80293;SDS011;69594;43.516;1.498;2024-03-02T12:45:48;6.60;;;2.30;;
80293;SDS011;69594;43.516;1.498;2024-03-02T12:48:13;7.37;;;2.50;;
80293;SDS011;69594;43.516;1.498;2024-03-02T12:50:39;9.40;;;2.80;;
80293;SDS011;69594;43.516;1.498;2024-03-02T12:53:05;8.13;;;2.08;;
80293;SDS011;69594;43.516;1.498;2024-03-02T12:55:30;6.10;;;2.10;;
80293;SDS011;69594;43.516;1.498;2024-03-02T12:57:56;5.93;;;2.27;;
80293;SDS011;69594;43.516;1.498;2024-03-02T13:00:22;6.50;;;2.10;;
80293;SDS011;69594;43.516;1.498;2024-03-02T13:02:47;5.97;;;1.93;;
80293;SDS011;69594;43.516;1.498;2024-03-02T13:05:13;7.70;;;2.35;;
80293;SDS011;69594;43.516;1.498;2024-03-02T13:07:39;6.80;;;2.10;;
80293;SDS011;69594;43.516;1.498;2024-03-02T13:10:04;4.37;;;2.20;;
80293;SDS011;69594;43.516;1.498;2024-03-02T13:12:32;4.88;;;2.00;;
80293;SDS011;69594;43.516;1.498;2024-03-02T13:14:58;4.80;;;1.70;;
80293;SDS011;69594;43.516;1.498;2024-03-02T13:17:24;7.03;;;2.35;;
80293;SDS011;69594;43.516;1.498;2024-03-02T13:19:53;7.73;;;2.37;;
80293;SDS011;69594;43.516;1.498;2024-03-02T13:22:18;7.05;;;2.20;;
80293;SDS011;69594;43.516;1.498;2024-03-02T13:24:43;5.07;;;2.07;;
80293;SDS011;69594;43.516;1.498;2024-03-02T13:27:09;5.13;;;1.90;;
80293;SDS011;69594;43.516;1.498;2024-03-02T13:29:34;6.82;;;2.15;;
80293;SDS011;69594;43.516;1.498;2024-03-02T13:31:59;8.43;;;2.37;;
80293;SDS011;69594;43.516;1.498;2024-03-02T13:34:25;7.77;;;1.90;;
80293;SDS011;69594;43.516;1.498;2024-03-02T13:36:50;6.77;;;2.00;;
80293;SDS011;69594;43.516;1.498;2024-03-02T13:39:16;7.10;;;1.93;;
80293;SDS011;69594;43.516;1.498;2024-03-02T13:41:41;5.53;;;1.90;;
80293;SDS011;69594;43.516;1.498;2024-03-02T13:44:07;9.83;;;2.93;;
80293;SDS011;69594;43.516;1.498;2024-03-02T13:46:32;7.10;;;2.10;;
80293;SDS011;69594;43.516;1.498;2024-03-02T13:48:57;6.63;;;1.90;;
80293;SDS011;69594;43.516;1.498;2024-03-02T13:51:23;8.27;;;1.65;;
80293;SDS011;69594;43.516;1.498;2024-03-02T13:53:48;9.70;;;2.30;;
80293;SDS011;69594;43.516;1.498;2024-03-02T13:56:14;6.18;;;2.30;;
80293;SDS011;69594;43.516;1.498;2024-03-02T13:58:39;6.23;;;1.73;;
80293;SDS011;69594;43.516;1.498;2024-03-02T14:01:05;7.40;;;2.23;;
80293;SDS011;69594;43.516;1.498;2024-03-02T14:03:30;5.23;;;2.00;;
80293;SDS011;69594;43.516;1.498;2024-03-02T14:05:56;5.87;;;2.00;;
80293;SDS011;69594;43.516;1.498;2024-03-02T14:08:21;4.87;;;2.07;;
80293;SDS011;69594;43.516;1.498;2024-03-02T14:10:46;5.93;;;2.05;;
80293;SDS011;69594;43.516;1.498;2024-03-02T14:13:12;6.87;;;1.77;;
80293;SDS011;69594;43.516;1.498;2024-03-02T14:15:37;4.43;;;1.90;;
80293;SDS011;69594;43.516;1.498;2024-03-02T14:18:05;3.67;;;2.00;;
80293;SDS011;69594;43.516;1.498;2024-03-02T14:20:30;6.30;;;2.27;;
80293;SDS011;69594;43.516;1.498;2024-03-02T14:22:55;6.43;;;2.08;;
80293;SDS011;69594;43.516;1.498;2024-03-02T14:25:21;3.67;;;1.70;;
80293;SDS011;69594;43.516;1.498;2024-03-02T14:27:46;6.60;;;2.53;;
80293;SDS011;69594;43.516;1.498;2024-03-02T14:30:12;6.57;;;1.97;;
80293;SDS011;69594;43.516;1.498;2024-03-02T14:32:37;7.43;;;1.95;;
80293;SDS011;69594;43.516;1.498;2024-03-02T14:35:03;6.47;;;2.33;;
80293;SDS011;69594;43.516;1.498;2024-03-02T14:37:28;7.10;;;2.03;;
80293;SDS011;69594;43.516;1.498;2024-03-02T14:39:53;6.47;;;2.10;;
80293;SDS011;69594;43.516;1.498;2024-03-02T14:42:20;7.53;;;1.98;;
80293;SDS011;69594;43.516;1.498;2024-03-02T14:44:45;6.77;;;2.57;;
80293;SDS011;69594;43.516;1.498;2024-03-02T14:47:11;7.63;;;1.40;;
80293;SDS011;69594;43.516;1.498;2024-03-02T14:49:36;4.25;;;1.67;;
80293;SDS011;69594;43.516;1.498;2024-03-02T14:52:05;4.47;;;1.83;;